Avoca, Michigan
Current Conditions -  °F | °C
As of 5:36 AM on Monday 20 Oct 2014 (Local Time) from KPHN Reporting Station
Light Rain Light Rain  
Wind Chill: 44°   Ceiling: 5500
Heat Index: 46°   Visibility: 10mi
Dew Point: 43°   Wind: 5mph
Humidity: 87%   Direction: 200°SSW
Pressure: 29.88"   Gusts: NA
Location:  43.06°N, 82.69°W
Report Text: KPHN 200936Z AUTO 20004KT 10SM -RA BKN055 OVC075 08/06 A2988 RMK AO2
Loading
Personal Weather Stations






























Interactive Weather Map
Tropical Storm Tracking
New forecast layout! Learn more

10-Day Weather Forecast

Advertisements
Track Severe Weather on mobile